Terminal Aerodrome Forecast
Issued by NWS San Angelo, TX

Home | Current Version | Previous Version | Text Only | Print | Product List | Glossary On
Versions: 1 2 3 4 5 6 7 8 9 10 11 12 13 14 15 16 17 18 19
000
FTUS44 KSJT 220500
TAFABI
TAF
KABI 220539Z 2206/2306 20017G26KT P6SM SCT015 BKN250
     FM221200 26013KT P6SM SCT250
     FM221800 34011KT P6SM SCT250=

USA.gov is the U.S. government's official web portal to all federal, state and local government web resources and services.